Aumsville, OR

4:55 PM PDT on March 31, 2015 (GMT -0700)
'Aumsville Ponds' Park | | Change Station
CLOSE
Current Station
Personal Weather Station
Location: Aumsville, OR
Elevation: 377 ft
Nearby Weather Stations

Elev 377 ft 44.83 °N, 122.86 °W | Updated 4 seconds ago

Overcast
Overcast
47.3 °F
Feels Like 46 °F
N
4.0
Wind Variable Wind from SSE
Gusts 5.0 mph

Today
High -- | Low -- °F
--% Chance of Precip.
Yesterday
High -- | Low -- °F
Precip. -- in
6:54 AM 7:37 PM
Waxing Gibbous, 89% visible
Pressure 30.22 in
Visibility 10.0 miles
Clouds Scattered Clouds 2800 ft
Mostly Cloudy 4200 ft
Overcast 6000 ft
Windchill 46 °F
Dew Point 44 °F
Humidity 88%
Rainfall 0.53 in
Snow Depth Not available.
UV 1 out of 12
Pollen 1.80 out of 12
Air Quality Not available.
Flu Activity Not available.
SPECI KSLE 312341Z 24008KT 10SM SCT028 BKN042 OVC060 11/05 A3022 RMK AO2 RAB10E29 P0001 T01060050

More Conditions Fewer Conditions

Pressure 30.22 in
Visibility 10.0 miles
Clouds Scattered Clouds 2800 ft
Mostly Cloudy 4200 ft
Overcast 6000 ft
Windchill 46 °F
Dew Point 44 °F
Humidity 88%
Rainfall 0.53 in
Snow Depth Not available.
UV 1 out of 12
Pollen 1.80 out of 12
Air Quality Not available.
Flu Activity Not available.
SPECI KSLE 312341Z 24008KT 10SM SCT028 BKN042 OVC060 11/05 A3022 RMK AO2 RAB10E29 P0001 T01060050

More Conditions Fewer Conditions

10-Day Weather Forecast

Almanac

Astronomy

Mar. 31, 2015 Rise Set
Actual Time
Civil Twilight
Nautical Twilight
Astronomical Twilight
Moon
Length of Visible Light
Length of Day
Tomorrow will be .
, % of the Moon is Illuminated

Today's Extremes

State Highs State Lows

Community

WunderPhotos

Upload Photos

1,809,877 photos uploaded!

WunderBlogs® & News

Nearby

Air Quality

  Air Quality AQ Index Pollutant
Not available.

Snow Depth

Station Depth Elevation

Earthquake Activity

City Distance Mag. Time & Date
Minimum magnitude displayed is 2.5.

Coastal Water Temperatures

Place Temperature

Stations

Nearby Weather Stations

Station Location Temp. Windchill Dew Point Humidity Wind Precip. Elev Updated Type